createdAt,value
2023-05-05T00:00:00.529Z,7.22
2023-05-05T00:02:30.394Z,7.03
2023-05-05T00:05:00.328Z,6.46
2023-05-05T00:07:30.297Z,6.84
2023-05-05T00:09:59.933Z,6.27
2023-05-05T00:12:30.318Z,6.65
2023-05-05T00:15:00.375Z,6.27
2023-05-05T00:17:30.334Z,6.84
2023-05-05T00:20:00.148Z,7.41
2023-05-05T00:22:30.234Z,7.22
2023-05-05T00:25:00.051Z,6.65
2023-05-05T00:27:29.819Z,5.89
2023-05-05T00:29:59.656Z,5.89
2023-05-05T00:32:29.446Z,6.46
2023-05-05T00:35:00.156Z,6.84
2023-05-05T00:37:29.371Z,7.41
2023-05-05T00:39:59.368Z,7.03
2023-05-05T00:42:40.484Z,7.22
2023-05-05T00:45:10.414Z,7.60
2023-05-05T00:47:41.777Z,7.22
2023-05-05T00:50:21.627Z,6.65
2023-05-05T00:52:54.249Z,7.22
2023-05-05T00:55:24.653Z,7.03
2023-05-05T00:57:55.104Z,7.22
2023-05-05T01:00:27.173Z,7.03
2023-05-05T01:02:57.367Z,7.03
2023-05-05T01:05:38.269Z,5.89
2023-05-05T01:08:36.675Z,6.27
2023-05-05T01:11:19.215Z,6.84
2023-05-05T01:14:12.125Z,5.89
2023-05-05T01:17:10.376Z,6.84
2023-05-05T01:20:05.734Z,6.46
2023-05-05T01:22:47.584Z,7.41
2023-05-05T01:25:41.537Z,6.46
2023-05-05T01:28:48.534Z,6.08
2023-05-05T01:32:00.869Z,7.03
2023-05-05T01:35:08.341Z,6.46
2023-05-05T01:37:50.450Z,6.65
2023-05-05T01:40:27.537Z,6.27
2023-05-05T01:43:01.711Z,5.89
2023-05-05T01:45:38.138Z,7.22
2023-05-05T01:48:09.557Z,7.79
2023-05-05T01:50:42.177Z,6.84
2023-05-05T01:53:13.599Z,6.84
2023-05-05T01:55:46.216Z,7.22
2023-05-05T01:58:18.496Z,6.84
2023-05-05T02:00:50.994Z,7.22
2023-05-05T02:03:23.528Z,7.03
2023-05-05T02:05:54.749Z,6.65
2023-05-05T02:08:26.738Z,7.41
2023-05-05T02:10:57.661Z,6.65
2023-05-05T02:13:32.509Z,6.84
2023-05-05T02:16:06.270Z,6.84
2023-05-05T02:18:38.837Z,7.41
2023-05-05T02:21:09.292Z,6.46
2023-05-05T02:23:39.226Z,7.03
2023-05-05T02:26:12.200Z,6.84
2023-05-05T02:29:03.194Z,7.41
2023-05-05T02:31:39.509Z,7.60
2023-05-05T02:34:11.293Z,7.98
2023-05-05T02:36:44.744Z,8.36
2023-05-05T02:39:47.267Z,6.84
2023-05-05T02:42:22.863Z,7.79
2023-05-05T02:44:57.673Z,6.84
2023-05-05T02:47:39.017Z,6.46
2023-05-05T02:50:09.167Z,7.03
2023-05-05T02:52:38.982Z,7.41
2023-05-05T02:55:09.941Z,6.65
2023-05-05T02:58:00.637Z,7.41
2023-05-05T03:00:39.755Z,7.22
2023-05-05T03:03:25.893Z,6.65
2023-05-05T03:06:18.074Z,6.84
2023-05-05T03:09:33.841Z,7.60
2023-05-05T03:12:20.931Z,6.65
2023-05-05T03:14:55.699Z,7.41
2023-05-05T03:17:29.508Z,7.22
2023-05-05T03:20:02.910Z,6.27
2023-05-05T03:22:31.198Z,7.22
2023-05-05T03:24:59.081Z,7.60
2023-05-05T03:27:27.652Z,7.79
2023-05-05T03:29:56.574Z,7.41
2023-05-05T03:32:24.400Z,7.03
2023-05-05T03:34:52.887Z,7.22
2023-05-05T03:37:21.179Z,7.41
2023-05-05T03:39:49.717Z,7.41
2023-05-05T03:42:18.088Z,8.55
2023-05-05T03:44:46.492Z,7.41
2023-05-05T03:47:14.958Z,7.22
2023-05-05T03:49:43.427Z,7.22
2023-05-05T03:52:13.837Z,7.22
2023-05-05T03:54:43.238Z,7.98
2023-05-05T03:57:11.719Z,7.60
2023-05-05T03:59:39.999Z,7.60
2023-05-05T04:02:08.654Z,7.41
2023-05-05T04:04:37.005Z,7.60
2023-05-05T04:07:06.161Z,7.98
2023-05-05T04:09:33.674Z,7.79
2023-05-05T04:12:03.181Z,7.41
2023-05-05T04:14:30.871Z,8.17
2023-05-05T04:16:58.975Z,7.79
2023-05-05T04:19:27.481Z,8.17
2023-05-05T04:21:56.116Z,7.98
2023-05-05T04:24:25.032Z,7.79
2023-05-05T04:26:53.235Z,7.41
2023-05-05T04:29:21.197Z,8.36
2023-05-05T04:31:50.600Z,8.36
2023-05-05T04:34:17.960Z,7.60
2023-05-05T04:36:46.334Z,7.98
2023-05-05T04:39:13.495Z,7.22
2023-05-05T04:41:41.418Z,7.03
2023-05-05T04:44:09.850Z,6.84
2023-05-05T04:46:38.362Z,7.79
2023-05-05T04:49:07.112Z,7.41
2023-05-05T04:51:35.189Z,8.93
2023-05-05T04:54:04.169Z,6.84
2023-05-05T04:56:32.432Z,7.22
2023-05-05T04:59:00.492Z,7.98
2023-05-05T05:01:28.914Z,8.74
2023-05-05T05:03:57.374Z,6.84
2023-05-05T05:06:25.784Z,7.79
2023-05-05T05:08:54.047Z,7.79
2023-05-05T05:11:22.525Z,7.79
2023-05-05T05:13:51.013Z,7.98
2023-05-05T05:16:20.199Z,7.79
2023-05-05T05:18:47.765Z,7.98
2023-05-05T05:21:16.271Z,7.98
2023-05-05T05:23:44.515Z,7.60
2023-05-05T05:26:12.943Z,7.79
2023-05-05T05:28:41.706Z,8.17
2023-05-05T05:31:09.764Z,7.60
2023-05-05T05:33:38.125Z,8.93
2023-05-05T05:36:06.791Z,7.22
2023-05-05T05:38:35.011Z,8.93
2023-05-05T05:41:07.670Z,8.55
2023-05-05T05:43:37.364Z,8.74
2023-05-05T05:46:09.079Z,9.69
2023-05-05T05:48:39.287Z,8.74
2023-05-05T05:51:09.023Z,8.55
2023-05-05T05:53:38.891Z,7.79
2023-05-05T05:56:09.843Z,8.74
2023-05-05T05:58:40.491Z,8.36
2023-05-05T06:01:10.830Z,8.93
2023-05-05T06:03:40.822Z,8.93
2023-05-05T06:06:10.632Z,9.69
2023-05-05T06:08:40.472Z,8.36
2023-05-05T06:11:10.273Z,9.69
2023-05-05T06:13:40.072Z,9.12
2023-05-05T06:16:09.986Z,8.55
2023-05-05T06:18:39.806Z,8.74
2023-05-05T06:21:09.557Z,7.79
2023-05-05T06:23:39.453Z,9.31
2023-05-05T06:26:09.223Z,7.79
2023-05-05T06:28:39.376Z,8.74
2023-05-05T06:31:09.258Z,9.31
2023-05-05T06:33:39.002Z,7.41
2023-05-05T06:36:09.395Z,8.93
2023-05-05T06:38:39.238Z,8.74
2023-05-05T06:41:08.976Z,8.93
2023-05-05T06:43:39.369Z,8.55
2023-05-05T06:46:09.391Z,8.36
2023-05-05T06:48:39.203Z,7.79
2023-05-05T06:51:09.986Z,8.17
2023-05-05T06:53:39.776Z,8.55
2023-05-05T06:56:09.487Z,8.55
2023-05-05T06:58:39.297Z,7.98
2023-05-05T07:01:09.681Z,8.74
2023-05-05T07:03:39.572Z,8.74
2023-05-05T07:06:09.511Z,8.17
2023-05-05T07:08:37.700Z,8.17
2023-05-05T07:11:07.155Z,7.98
2023-05-05T07:13:34.756Z,8.17
2023-05-05T07:16:03.039Z,8.36
2023-05-05T07:18:31.412Z,7.60
2023-05-05T07:20:59.960Z,8.36
2023-05-05T07:23:28.285Z,7.41
2023-05-05T07:25:56.871Z,7.60
2023-05-05T07:28:25.109Z,7.60
2023-05-05T07:30:53.669Z,8.17
2023-05-05T07:33:22.288Z,7.98
2023-05-05T07:35:50.653Z,6.84
2023-05-05T07:38:18.865Z,7.98
2023-05-05T07:40:47.382Z,7.60
2023-05-05T07:43:15.790Z,6.46
2023-05-05T07:45:44.076Z,7.79
2023-05-05T07:48:12.517Z,7.98
2023-05-05T07:50:41.148Z,8.36
2023-05-05T07:53:14.589Z,7.41
2023-05-05T07:55:44.773Z,7.03
2023-05-05T07:58:14.567Z,8.17
2023-05-05T08:00:44.430Z,8.17
2023-05-05T08:03:14.316Z,7.41
2023-05-05T08:05:44.178Z,7.22
2023-05-05T08:08:13.978Z,8.17
2023-05-05T08:10:43.781Z,8.74
2023-05-05T08:13:13.612Z,7.60
2023-05-05T08:15:45.124Z,8.36
2023-05-05T08:18:15.020Z,7.79
2023-05-05T08:20:45.429Z,7.60
2023-05-05T08:23:15.330Z,8.36
2023-05-05T08:25:45.144Z,7.60
2023-05-05T08:28:15.054Z,8.17
2023-05-05T08:30:44.894Z,8.55
2023-05-05T08:33:14.605Z,7.98
2023-05-05T08:35:45.862Z,8.17
2023-05-05T08:38:14.838Z,7.60
2023-05-05T08:40:45.417Z,8.93
2023-05-05T08:43:15.952Z,8.36
2023-05-05T08:45:46.415Z,8.55
2023-05-05T08:48:20.929Z,8.36
2023-05-05T08:51:00.810Z,7.79
2023-05-05T08:53:45.844Z,7.98
2023-05-05T08:56:16.470Z,8.36
2023-05-05T08:58:48.549Z,8.36
2023-05-05T09:01:19.095Z,7.60
2023-05-05T09:03:49.806Z,7.79
2023-05-05T09:06:20.339Z,7.79
2023-05-05T09:08:49.594Z,6.65
2023-05-05T09:11:17.283Z,6.65
2023-05-05T09:13:47.538Z,7.98
2023-05-05T09:16:17.348Z,7.03
2023-05-05T09:18:47.183Z,7.79
2023-05-05T09:21:22.849Z,7.03
2023-05-05T09:24:11.550Z,6.46
2023-05-05T09:26:47.197Z,7.98
2023-05-05T09:29:22.334Z,6.84
2023-05-05T09:32:08.532Z,7.41
2023-05-05T09:34:37.329Z,7.03
2023-05-05T09:37:04.475Z,7.60
2023-05-05T09:39:32.816Z,6.84
2023-05-05T09:42:03.023Z,7.22
2023-05-05T09:44:36.370Z,6.65
2023-05-05T09:47:12.164Z,7.03
2023-05-05T09:50:01.934Z,7.41
2023-05-05T09:52:30.239Z,6.84
2023-05-05T09:55:00.174Z,7.22
2023-05-05T09:57:33.831Z,7.41
2023-05-05T10:00:05.783Z,7.22
2023-05-05T10:02:38.748Z,6.65
2023-05-05T10:05:17.026Z,7.79
2023-05-05T10:07:48.229Z,7.03
2023-05-05T10:10:19.241Z,7.41
2023-05-05T10:12:50.585Z,6.84
2023-05-05T10:15:21.408Z,6.84
2023-05-05T10:18:07.008Z,7.41
2023-05-05T10:20:39.687Z,7.22
2023-05-05T10:23:18.378Z,6.27
2023-05-05T10:26:05.718Z,7.03
2023-05-05T10:28:45.675Z,7.03
2023-05-05T10:31:26.875Z,7.60
2023-05-05T10:34:05.937Z,7.60
2023-05-05T10:36:39.157Z,5.89
2023-05-05T10:39:10.951Z,6.84
2023-05-05T10:41:41.470Z,7.03
2023-05-05T10:44:13.531Z,7.03
2023-05-05T10:46:44.828Z,7.41
2023-05-05T10:49:40.828Z,8.55
2023-05-05T10:52:35.408Z,6.65
2023-05-05T10:55:17.982Z,7.22
2023-05-05T10:57:53.711Z,7.79
2023-05-05T11:00:38.778Z,6.46
2023-05-05T11:03:18.000Z,7.03
2023-05-05T11:06:07.584Z,6.65
2023-05-05T11:08:42.843Z,6.27
2023-05-05T11:11:13.345Z,6.65
2023-05-05T11:13:43.177Z,6.65
2023-05-05T11:16:47.788Z,6.84
2023-05-05T11:19:42.911Z,7.60
2023-05-05T11:22:12.695Z,7.41
2023-05-05T11:24:42.610Z,7.41
2023-05-05T11:27:11.542Z,7.03
2023-05-05T11:30:09.165Z,6.08
2023-05-05T11:32:39.195Z,6.84
2023-05-05T11:35:09.035Z,6.08
2023-05-05T11:37:40.415Z,6.27
2023-05-05T11:40:27.919Z,7.22
2023-05-05T11:43:07.507Z,6.65
2023-05-05T11:45:35.902Z,7.22
2023-05-05T11:48:29.413Z,6.84
2023-05-05T11:50:59.095Z,6.46
2023-05-05T11:53:29.234Z,6.08
2023-05-05T11:56:10.523Z,7.03
2023-05-05T11:58:41.564Z,6.27
2023-05-05T12:01:13.221Z,5.89
2023-05-05T12:03:45.389Z,7.22
2023-05-05T12:06:15.570Z,6.84
2023-05-05T12:08:45.734Z,6.65
2023-05-05T12:11:15.655Z,6.27
2023-05-05T12:13:46.424Z,5.89
2023-05-05T12:16:17.181Z,6.84
2023-05-05T12:18:46.680Z,5.89
2023-05-05T12:21:20.797Z,5.89
2023-05-05T12:23:50.001Z,7.22
2023-05-05T12:26:31.509Z,6.65
2023-05-05T12:29:01.603Z,5.70
2023-05-05T12:31:36.007Z,6.46
2023-05-05T12:34:08.773Z,6.84
2023-05-05T12:36:39.945Z,6.08
2023-05-05T12:39:10.069Z,5.51
2023-05-05T12:41:40.573Z,5.89
2023-05-05T12:44:10.617Z,6.27
2023-05-05T12:46:49.099Z,6.65
2023-05-05T12:49:19.017Z,6.65
2023-05-05T12:51:54.942Z,5.70
2023-05-05T12:54:25.282Z,6.27
2023-05-05T12:56:59.707Z,6.08
2023-05-05T12:59:30.715Z,5.51
2023-05-05T13:02:03.495Z,5.89
2023-05-05T13:04:31.642Z,5.89
2023-05-05T13:07:14.129Z,5.51
2023-05-05T13:09:42.327Z,6.27
2023-05-05T13:12:15.745Z,5.70
2023-05-05T13:14:46.635Z,5.89
2023-05-05T13:17:15.676Z,5.89
2023-05-05T13:19:46.735Z,5.32
2023-05-05T13:22:16.903Z,5.89
2023-05-05T13:24:52.238Z,5.70
2023-05-05T13:27:22.755Z,5.13
2023-05-05T13:29:52.725Z,5.32
2023-05-05T13:32:22.896Z,5.89
2023-05-05T13:34:52.781Z,5.13
2023-05-05T13:37:22.623Z,5.51
2023-05-05T13:39:52.537Z,5.51
2023-05-05T13:42:22.288Z,5.70
2023-05-05T13:44:52.076Z,5.70
2023-05-05T13:47:22.117Z,5.13
2023-05-05T13:49:52.159Z,5.51
2023-05-05T13:52:21.947Z,14.44
2023-05-05T13:54:51.930Z,8.36
2023-05-05T13:57:21.664Z,5.89
2023-05-05T13:59:51.343Z,5.89
2023-05-05T14:02:21.042Z,5.32
2023-05-05T14:04:50.874Z,5.51
2023-05-05T14:07:21.445Z,6.46
2023-05-05T14:09:51.238Z,5.13
2023-05-05T14:12:21.013Z,5.32
2023-05-05T14:14:50.761Z,5.70
2023-05-05T14:17:20.524Z,6.46
2023-05-05T14:19:51.172Z,5.89
2023-05-05T14:22:20.776Z,6.08
2023-05-05T14:24:50.617Z,5.32
2023-05-05T14:27:20.364Z,5.13
2023-05-05T14:29:50.063Z,5.70
2023-05-05T14:32:19.769Z,5.51
2023-05-05T14:34:50.527Z,5.51
2023-05-05T14:37:20.239Z,4.94
2023-05-05T14:39:49.954Z,5.89
2023-05-05T14:42:19.691Z,4.94
2023-05-05T14:44:49.753Z,5.32
2023-05-05T14:47:19.594Z,4.75
2023-05-05T14:49:49.305Z,4.75
2023-05-05T14:52:19.043Z,4.94
2023-05-05T14:54:48.743Z,5.32
2023-05-05T14:57:18.532Z,5.89
2023-05-05T14:59:51.373Z,5.32
2023-05-05T15:02:21.424Z,5.13
2023-05-05T15:04:52.987Z,5.32
2023-05-05T15:07:28.276Z,5.51
2023-05-05T15:09:58.078Z,5.32
2023-05-05T15:12:27.899Z,5.32
2023-05-05T15:14:57.731Z,6.46
2023-05-05T15:17:27.622Z,5.13
2023-05-05T15:19:57.539Z,4.94
2023-05-05T15:22:27.381Z,5.70
2023-05-05T15:24:57.125Z,5.13
2023-05-05T15:27:27.425Z,7.03
2023-05-05T15:29:57.804Z,5.89
2023-05-05T15:32:28.367Z,5.32
2023-05-05T15:34:58.078Z,5.70
2023-05-05T15:37:28.899Z,5.51
2023-05-05T15:39:58.993Z,5.51
2023-05-05T15:42:29.097Z,5.70
2023-05-05T15:45:00.854Z,6.27
2023-05-05T15:47:30.742Z,6.27
2023-05-05T15:50:00.724Z,5.89
2023-05-05T15:52:30.650Z,5.70
2023-05-05T15:55:01.531Z,5.70
2023-05-05T15:57:31.504Z,5.89
2023-05-05T16:00:01.941Z,5.89
2023-05-05T16:02:31.811Z,6.84
2023-05-05T16:05:01.898Z,6.27
2023-05-05T16:07:31.926Z,5.70
2023-05-05T16:10:01.876Z,6.27
2023-05-05T16:12:31.880Z,5.89
2023-05-05T16:15:01.809Z,5.13
2023-05-05T16:17:31.591Z,5.13
2023-05-05T16:20:01.666Z,5.89
2023-05-05T16:22:31.558Z,6.08
2023-05-05T16:25:00.068Z,5.51
2023-05-05T16:27:28.346Z,5.32
2023-05-05T16:29:58.507Z,5.32
2023-05-05T16:32:28.356Z,5.70
2023-05-05T16:34:56.894Z,5.89
2023-05-05T16:37:25.065Z,6.46
2023-05-05T16:39:53.351Z,5.13
2023-05-05T16:42:22.570Z,5.70
2023-05-05T16:44:50.347Z,6.27
2023-05-05T16:47:18.697Z,5.32
2023-05-05T16:49:47.103Z,6.46
2023-05-05T16:52:15.793Z,6.65
2023-05-05T16:54:44.149Z,5.70
2023-05-05T16:57:12.942Z,5.70
2023-05-05T16:59:41.729Z,6.08
2023-05-05T17:02:09.455Z,7.03
2023-05-05T17:04:37.569Z,5.70
2023-05-05T17:07:06.129Z,5.89
2023-05-05T17:09:34.488Z,6.27
2023-05-05T17:12:05.578Z,5.70
2023-05-05T17:14:35.478Z,5.70
2023-05-05T17:17:05.607Z,6.27
2023-05-05T17:19:35.431Z,6.65
2023-05-05T17:22:05.317Z,6.46
2023-05-05T17:24:35.075Z,5.32
2023-05-05T17:27:04.902Z,6.27
2023-05-05T17:29:40.460Z,5.70
2023-05-05T17:32:09.834Z,5.70
2023-05-05T17:34:38.388Z,6.46
2023-05-05T17:37:06.607Z,6.27
2023-05-05T17:39:35.377Z,5.51
2023-05-05T17:42:03.961Z,6.08
2023-05-05T17:44:32.656Z,6.27
2023-05-05T17:47:02.680Z,6.27
2023-05-05T17:49:32.250Z,6.27
2023-05-05T17:52:00.949Z,5.70
2023-05-05T17:54:29.338Z,5.89
2023-05-05T17:56:59.571Z,5.51
2023-05-05T17:59:27.130Z,5.32
2023-05-05T18:01:55.759Z,6.46
2023-05-05T18:04:24.338Z,6.65
2023-05-05T18:06:57.376Z,6.08
2023-05-05T18:09:27.425Z,5.51
2023-05-05T18:11:57.863Z,6.08
2023-05-05T18:14:27.499Z,6.08
2023-05-05T18:16:57.347Z,6.46
2023-05-05T18:19:27.171Z,6.46
2023-05-05T18:21:59.850Z,7.60
2023-05-05T18:24:29.731Z,6.84
2023-05-05T18:26:59.653Z,7.22
2023-05-05T18:29:29.544Z,6.65
2023-05-05T18:31:59.423Z,6.27
2023-05-05T18:34:29.587Z,7.41
2023-05-05T18:37:00.336Z,6.84
2023-05-05T18:39:30.362Z,7.22
2023-05-05T18:42:00.436Z,7.60
2023-05-05T18:44:32.662Z,7.41
2023-05-05T18:47:02.604Z,7.03
2023-05-05T18:49:32.849Z,7.03
2023-05-05T18:52:02.986Z,6.84
2023-05-05T18:54:32.756Z,6.46
2023-05-05T18:57:03.532Z,8.17
2023-05-05T18:59:33.318Z,7.41
2023-05-05T19:02:03.460Z,7.79
2023-05-05T19:04:36.431Z,7.41
2023-05-05T19:07:07.049Z,7.79
2023-05-05T19:09:35.203Z,7.98
2023-05-05T19:12:04.760Z,7.22
2023-05-05T19:14:34.581Z,7.98
2023-05-05T19:17:03.626Z,6.84
2023-05-05T19:19:31.362Z,7.60
2023-05-05T19:22:02.096Z,7.79
2023-05-05T19:24:35.525Z,7.60
2023-05-05T19:27:05.364Z,7.41
2023-05-05T19:29:35.198Z,7.41
2023-05-05T19:32:05.680Z,7.60
2023-05-05T19:34:35.396Z,6.84
2023-05-05T19:37:05.306Z,7.03
2023-05-05T19:39:35.296Z,6.84
2023-05-05T19:42:06.266Z,7.41
2023-05-05T19:44:36.176Z,7.41
2023-05-05T19:47:06.000Z,6.84
2023-05-05T19:49:36.176Z,8.17
2023-05-05T19:52:06.130Z,7.22
2023-05-05T19:54:36.232Z,7.60
2023-05-05T19:57:07.261Z,7.79
2023-05-05T19:59:37.003Z,7.22
2023-05-05T20:02:06.730Z,7.60
2023-05-05T20:04:36.497Z,7.79
2023-05-05T20:07:06.321Z,6.46
2023-05-05T20:09:37.691Z,6.27
2023-05-05T20:12:14.123Z,7.22
2023-05-05T20:14:43.809Z,7.22
2023-05-05T20:17:15.408Z,7.41
2023-05-05T20:19:45.424Z,7.22
2023-05-05T20:22:15.466Z,7.41
2023-05-05T20:24:45.234Z,6.84
2023-05-05T20:27:15.081Z,7.41
2023-05-05T20:29:44.799Z,6.08
2023-05-05T20:32:14.851Z,6.84
2023-05-05T20:34:42.906Z,7.60
2023-05-05T20:37:12.424Z,7.03
2023-05-05T20:39:43.698Z,5.89
2023-05-05T20:42:14.833Z,7.03
2023-05-05T20:44:44.913Z,7.22
2023-05-05T20:47:14.681Z,6.84
2023-05-05T20:49:44.549Z,6.46
2023-05-05T20:52:14.317Z,6.65
2023-05-05T20:54:44.077Z,6.65
2023-05-05T20:57:13.919Z,7.79
2023-05-05T20:59:43.857Z,7.03
2023-05-05T21:02:13.644Z,7.03
2023-05-05T21:04:43.563Z,7.41
2023-05-05T21:07:13.441Z,6.84
2023-05-05T21:09:46.995Z,6.65
2023-05-05T21:12:16.630Z,7.22
2023-05-05T21:14:46.422Z,6.84
2023-05-05T21:17:14.840Z,7.98
2023-05-05T21:19:43.408Z,7.79
2023-05-05T21:22:11.729Z,7.60
2023-05-05T21:24:40.462Z,7.60
2023-05-05T21:27:08.990Z,6.08
2023-05-05T21:29:37.907Z,7.22
2023-05-05T21:32:08.895Z,7.79
2023-05-05T21:34:39.211Z,7.41
2023-05-05T21:37:08.454Z,7.79
2023-05-05T21:39:36.860Z,7.98
2023-05-05T21:42:09.179Z,7.41
2023-05-05T21:44:39.139Z,8.17
2023-05-05T21:47:10.313Z,8.36
2023-05-05T21:49:40.034Z,7.79
2023-05-05T21:52:10.082Z,7.41
2023-05-05T21:54:40.713Z,7.60
2023-05-05T21:57:10.564Z,7.79
2023-05-05T21:59:41.212Z,7.41
2023-05-05T22:02:11.059Z,7.41
2023-05-05T22:04:40.831Z,7.60
2023-05-05T22:07:10.586Z,8.55
2023-05-05T22:09:40.434Z,7.41
2023-05-05T22:12:14.987Z,7.22
2023-05-05T22:14:44.749Z,8.36
2023-05-05T22:17:14.517Z,8.74
2023-05-05T22:19:44.235Z,8.36
2023-05-05T22:22:14.054Z,8.74
2023-05-05T22:24:43.776Z,8.17
2023-05-05T22:27:13.623Z,8.55
2023-05-05T22:29:43.399Z,8.36
2023-05-05T22:32:13.179Z,8.74
2023-05-05T22:34:43.006Z,7.98
2023-05-05T22:37:14.248Z,8.93
2023-05-05T22:39:44.299Z,8.36
2023-05-05T22:42:18.370Z,7.79
2023-05-05T22:44:45.411Z,8.55
2023-05-05T22:47:13.963Z,8.93
2023-05-05T22:49:42.430Z,9.12
2023-05-05T22:52:11.522Z,9.31
2023-05-05T22:54:39.131Z,9.31
2023-05-05T22:57:07.637Z,10.45
2023-05-05T22:59:36.092Z,9.69
2023-05-05T23:02:05.200Z,9.31
2023-05-05T23:04:32.774Z,10.26
2023-05-05T23:07:01.180Z,9.69
2023-05-05T23:09:29.642Z,8.93
2023-05-05T23:11:58.068Z,8.74
2023-05-05T23:14:26.471Z,8.17
2023-05-05T23:16:54.906Z,10.26
2023-05-05T23:19:24.298Z,9.31
2023-05-05T23:21:53.606Z,9.50
2023-05-05T23:24:23.682Z,9.12
2023-05-05T23:26:53.872Z,9.69
2023-05-05T23:29:23.675Z,9.69
2023-05-05T23:31:53.473Z,10.26
2023-05-05T23:34:23.756Z,10.07
2023-05-05T23:36:53.571Z,10.45
2023-05-05T23:39:23.414Z,9.50
2023-05-05T23:41:53.135Z,10.45
2023-05-05T23:44:22.876Z,10.26
2023-05-05T23:46:52.627Z,10.45
2023-05-05T23:49:23.761Z,10.83
2023-05-05T23:51:53.526Z,10.07
2023-05-05T23:54:23.309Z,10.26
2023-05-05T23:56:53.066Z,10.26
2023-05-05T23:59:22.849Z,9.88
